sensor_id;sensor_type;location;lat;lon;timestamp;temperature;humidity
43999;DHT22;51319;52.162;5.302;2023-06-14T00:02:20;19.60;53.70
43999;DHT22;51319;52.162;5.302;2023-06-14T00:04:47;19.50;53.60
43999;DHT22;51319;52.162;5.302;2023-06-14T00:07:15;19.50;53.70
43999;DHT22;51319;52.162;5.302;2023-06-14T00:09:43;19.50;53.60
43999;DHT22;51319;52.162;5.302;2023-06-14T00:12:10;19.50;53.60
43999;DHT22;51319;52.162;5.302;2023-06-14T00:14:37;19.40;53.70
43999;DHT22;51319;52.162;5.302;2023-06-14T00:17:04;19.40;53.60
43999;DHT22;51319;52.162;5.302;2023-06-14T00:19:32;19.40;53.70
43999;DHT22;51319;52.162;5.302;2023-06-14T00:22:05;19.30;53.70
43999;DHT22;51319;52.162;5.302;2023-06-14T00:24:32;19.30;53.70
43999;DHT22;51319;52.162;5.302;2023-06-14T00:27:01;19.20;53.60
43999;DHT22;51319;52.162;5.302;2023-06-14T00:29:28;19.20;53.70
43999;DHT22;51319;52.162;5.302;2023-06-14T00:31:55;19.10;53.90
43999;DHT22;51319;52.162;5.302;2023-06-14T00:34:25;19.10;54.10
43999;DHT22;51319;52.162;5.302;2023-06-14T00:36:52;19.20;54.20
43999;DHT22;51319;52.162;5.302;2023-06-14T00:39:19;19.10;54.30
43999;DHT22;51319;52.162;5.302;2023-06-14T00:41:46;19.10;54.70
43999;DHT22;51319;52.162;5.302;2023-06-14T00:44:17;19.00;54.70
43999;DHT22;51319;52.162;5.302;2023-06-14T00:46:45;19.00;55.30
43999;DHT22;51319;52.162;5.302;2023-06-14T00:49:17;18.90;55.50
43999;DHT22;51319;52.162;5.302;2023-06-14T00:51:45;18.80;56.20
43999;DHT22;51319;52.162;5.302;2023-06-14T00:54:13;18.80;56.20
43999;DHT22;51319;52.162;5.302;2023-06-14T00:56:41;18.70;56.40
43999;DHT22;51319;52.162;5.302;2023-06-14T00:59:09;18.70;56.40
43999;DHT22;51319;52.162;5.302;2023-06-14T01:01:38;18.60;56.40
43999;DHT22;51319;52.162;5.302;2023-06-14T01:04:08;18.50;56.60
43999;DHT22;51319;52.162;5.302;2023-06-14T01:06:49;18.50;56.80
43999;DHT22;51319;52.162;5.302;2023-06-14T01:09:28;18.40;56.80
43999;DHT22;51319;52.162;5.302;2023-06-14T01:15:04;18.30;57.00
43999;DHT22;51319;52.162;5.302;2023-06-14T01:17:32;18.30;56.90
43999;DHT22;51319;52.162;5.302;2023-06-14T01:20:05;18.20;57.00
43999;DHT22;51319;52.162;5.302;2023-06-14T01:22:37;18.20;57.30
43999;DHT22;51319;52.162;5.302;2023-06-14T01:25:04;18.10;57.20
43999;DHT22;51319;52.162;5.302;2023-06-14T01:27:35;18.10;57.20
43999;DHT22;51319;52.162;5.302;2023-06-14T01:30:05;18.10;57.60
43999;DHT22;51319;52.162;5.302;2023-06-14T01:32:36;18.10;57.70
43999;DHT22;51319;52.162;5.302;2023-06-14T01:35:08;18.00;57.40
43999;DHT22;51319;52.162;5.302;2023-06-14T01:37:37;18.00;57.60
43999;DHT22;51319;52.162;5.302;2023-06-14T01:40:05;18.00;57.60
43999;DHT22;51319;52.162;5.302;2023-06-14T01:42:36;18.00;57.50
43999;DHT22;51319;52.162;5.302;2023-06-14T01:45:06;18.00;57.70
43999;DHT22;51319;52.162;5.302;2023-06-14T01:47:34;18.00;57.50
43999;DHT22;51319;52.162;5.302;2023-06-14T01:50:04;18.00;57.40
43999;DHT22;51319;52.162;5.302;2023-06-14T01:52:31;17.90;57.30
43999;DHT22;51319;52.162;5.302;2023-06-14T01:54:59;17.90;57.00
43999;DHT22;51319;52.162;5.302;2023-06-14T01:57:31;17.90;57.00
43999;DHT22;51319;52.162;5.302;2023-06-14T01:59:57;17.90;56.80
43999;DHT22;51319;52.162;5.302;2023-06-14T02:02:26;17.90;56.80
43999;DHT22;51319;52.162;5.302;2023-06-14T02:04:53;17.90;56.70
43999;DHT22;51319;52.162;5.302;2023-06-14T02:07:25;17.90;56.70
43999;DHT22;51319;52.162;5.302;2023-06-14T02:09:52;17.90;56.50
43999;DHT22;51319;52.162;5.302;2023-06-14T02:12:20;17.90;56.40
43999;DHT22;51319;52.162;5.302;2023-06-14T02:14:47;17.80;56.60
43999;DHT22;51319;52.162;5.302;2023-06-14T02:17:15;17.70;56.70
43999;DHT22;51319;52.162;5.302;2023-06-14T02:19:44;17.70;57.10
43999;DHT22;51319;52.162;5.302;2023-06-14T02:22:11;17.70;57.10
43999;DHT22;51319;52.162;5.302;2023-06-14T02:24:41;17.60;57.10
43999;DHT22;51319;52.162;5.302;2023-06-14T02:27:08;17.60;57.30
43999;DHT22;51319;52.162;5.302;2023-06-14T02:29:37;17.50;57.50
43999;DHT22;51319;52.162;5.302;2023-06-14T02:32:06;17.40;57.80
43999;DHT22;51319;52.162;5.302;2023-06-14T02:34:35;17.40;58.10
43999;DHT22;51319;52.162;5.302;2023-06-14T02:37:02;17.30;58.40
43999;DHT22;51319;52.162;5.302;2023-06-14T02:39:31;17.30;58.50
43999;DHT22;51319;52.162;5.302;2023-06-14T02:41:59;17.20;58.80
43999;DHT22;51319;52.162;5.302;2023-06-14T02:44:27;17.10;58.90
43999;DHT22;51319;52.162;5.302;2023-06-14T02:46:54;17.10;59.10
43999;DHT22;51319;52.162;5.302;2023-06-14T02:49:22;17.00;59.40
43999;DHT22;51319;52.162;5.302;2023-06-14T02:51:49;17.00;59.50
43999;DHT22;51319;52.162;5.302;2023-06-14T02:54:17;16.90;59.60
43999;DHT22;51319;52.162;5.302;2023-06-14T02:56:44;16.90;60.00
43999;DHT22;51319;52.162;5.302;2023-06-14T02:59:11;16.80;60.10
43999;DHT22;51319;52.162;5.302;2023-06-14T03:01:40;16.80;60.10
43999;DHT22;51319;52.162;5.302;2023-06-14T03:04:12;16.70;60.10
43999;DHT22;51319;52.162;5.302;2023-06-14T03:06:39;16.70;60.40
43999;DHT22;51319;52.162;5.302;2023-06-14T03:09:06;16.60;60.40
43999;DHT22;51319;52.162;5.302;2023-06-14T03:11:36;16.60;60.70
43999;DHT22;51319;52.162;5.302;2023-06-14T03:14:03;16.50;60.80
43999;DHT22;51319;52.162;5.302;2023-06-14T03:16:32;16.50;61.00
43999;DHT22;51319;52.162;5.302;2023-06-14T03:19:00;16.50;61.10
43999;DHT22;51319;52.162;5.302;2023-06-14T03:21:29;16.40;61.10
43999;DHT22;51319;52.162;5.302;2023-06-14T03:23:56;16.40;61.20
43999;DHT22;51319;52.162;5.302;2023-06-14T03:26:24;16.40;61.50
43999;DHT22;51319;52.162;5.302;2023-06-14T03:28:51;16.40;61.60
43999;DHT22;51319;52.162;5.302;2023-06-14T03:31:18;16.30;61.60
43999;DHT22;51319;52.162;5.302;2023-06-14T03:33:46;16.30;61.70
43999;DHT22;51319;52.162;5.302;2023-06-14T03:36:13;16.30;61.90
43999;DHT22;51319;52.162;5.302;2023-06-14T03:38:40;16.30;62.00
43999;DHT22;51319;52.162;5.302;2023-06-14T03:41:07;16.30;62.20
43999;DHT22;51319;52.162;5.302;2023-06-14T03:43:34;16.20;62.40
43999;DHT22;51319;52.162;5.302;2023-06-14T03:46:01;16.20;62.30
43999;DHT22;51319;52.162;5.302;2023-06-14T03:48:29;16.20;62.30
43999;DHT22;51319;52.162;5.302;2023-06-14T03:50:56;16.20;62.40
43999;DHT22;51319;52.162;5.302;2023-06-14T03:53:27;16.20;62.40
43999;DHT22;51319;52.162;5.302;2023-06-14T03:55:56;16.20;62.30
43999;DHT22;51319;52.162;5.302;2023-06-14T03:58:24;16.20;62.40
43999;DHT22;51319;52.162;5.302;2023-06-14T04:00:51;16.20;62.60
43999;DHT22;51319;52.162;5.302;2023-06-14T04:03:18;16.20;62.60
43999;DHT22;51319;52.162;5.302;2023-06-14T04:05:47;16.20;62.60
43999;DHT22;51319;52.162;5.302;2023-06-14T04:08:16;16.20;62.60
43999;DHT22;51319;52.162;5.302;2023-06-14T04:10:46;16.20;62.70
43999;DHT22;51319;52.162;5.302;2023-06-14T04:13:14;16.20;63.30
43999;DHT22;51319;52.162;5.302;2023-06-14T04:15:41;16.20;62.80
43999;DHT22;51319;52.162;5.302;2023-06-14T04:18:15;16.20;62.80
43999;DHT22;51319;52.162;5.302;2023-06-14T04:20:43;16.20;63.20
43999;DHT22;51319;52.162;5.302;2023-06-14T04:23:16;16.20;63.20
43999;DHT22;51319;52.162;5.302;2023-06-14T04:25:48;16.20;63.00
43999;DHT22;51319;52.162;5.302;2023-06-14T04:28:18;16.30;63.00
43999;DHT22;51319;52.162;5.302;2023-06-14T04:30:47;16.30;63.20
43999;DHT22;51319;52.162;5.302;2023-06-14T04:33:15;16.30;63.10
43999;DHT22;51319;52.162;5.302;2023-06-14T04:35:48;16.40;63.20
43999;DHT22;51319;52.162;5.302;2023-06-14T04:38:16;16.40;63.20
43999;DHT22;51319;52.162;5.302;2023-06-14T04:40:48;16.40;63.10
43999;DHT22;51319;52.162;5.302;2023-06-14T04:43:14;16.50;63.30
43999;DHT22;51319;52.162;5.302;2023-06-14T04:45:43;16.50;63.20
43999;DHT22;51319;52.162;5.302;2023-06-14T04:48:17;16.50;63.10
43999;DHT22;51319;52.162;5.302;2023-06-14T04:50:48;16.60;63.20
43999;DHT22;51319;52.162;5.302;2023-06-14T04:53:20;16.60;62.90
43999;DHT22;51319;52.162;5.302;2023-06-14T04:55:49;16.70;62.90
43999;DHT22;51319;52.162;5.302;2023-06-14T04:58:17;16.70;62.80
43999;DHT22;51319;52.162;5.302;2023-06-14T05:00:44;16.80;62.70
43999;DHT22;51319;52.162;5.302;2023-06-14T05:03:11;16.80;63.50
43999;DHT22;51319;52.162;5.302;2023-06-14T05:05:40;16.90;62.70
43999;DHT22;51319;52.162;5.302;2023-06-14T05:08:08;16.90;62.50
43999;DHT22;51319;52.162;5.302;2023-06-14T05:10:36;17.00;62.60
43999;DHT22;51319;52.162;5.302;2023-06-14T05:13:04;17.00;62.80
43999;DHT22;51319;52.162;5.302;2023-06-14T05:15:31;17.10;62.90
43999;DHT22;51319;52.162;5.302;2023-06-14T05:17:59;17.10;62.70
43999;DHT22;51319;52.162;5.302;2023-06-14T05:20:26;17.10;62.90
43999;DHT22;51319;52.162;5.302;2023-06-14T05:22:55;17.20;62.90
43999;DHT22;51319;52.162;5.302;2023-06-14T05:25:23;17.30;63.00
43999;DHT22;51319;52.162;5.302;2023-06-14T05:27:52;17.30;62.90
43999;DHT22;51319;52.162;5.302;2023-06-14T05:30:19;17.40;62.60
43999;DHT22;51319;52.162;5.302;2023-06-14T05:32:47;17.50;62.60
43999;DHT22;51319;52.162;5.302;2023-06-14T05:35:14;17.70;62.30
43999;DHT22;51319;52.162;5.302;2023-06-14T05:37:42;17.80;61.90
43999;DHT22;51319;52.162;5.302;2023-06-14T05:40:10;18.00;61.40
43999;DHT22;51319;52.162;5.302;2023-06-14T05:42:37;18.30;60.80
43999;DHT22;51319;52.162;5.302;2023-06-14T05:45:05;18.60;60.00
43999;DHT22;51319;52.162;5.302;2023-06-14T05:47:33;18.90;59.40
43999;DHT22;51319;52.162;5.302;2023-06-14T05:50:03;19.10;58.80
43999;DHT22;51319;52.162;5.302;2023-06-14T05:52:36;19.40;58.20
43999;DHT22;51319;52.162;5.302;2023-06-14T05:55:05;19.70;57.60
43999;DHT22;51319;52.162;5.302;2023-06-14T05:57:32;20.00;56.00
43999;DHT22;51319;52.162;5.302;2023-06-14T06:00:00;20.30;55.20
43999;DHT22;51319;52.162;5.302;2023-06-14T06:02:26;20.70;54.50
43999;DHT22;51319;52.162;5.302;2023-06-14T06:04:56;20.90;54.00
43999;DHT22;51319;52.162;5.302;2023-06-14T06:07:24;21.20;52.60
43999;DHT22;51319;52.162;5.302;2023-06-14T06:09:55;21.50;52.30
43999;DHT22;51319;52.162;5.302;2023-06-14T06:12:22;21.90;52.00
43999;DHT22;51319;52.162;5.302;2023-06-14T06:14:49;22.20;51.00
43999;DHT22;51319;52.162;5.302;2023-06-14T06:17:16;22.50;50.90
43999;DHT22;51319;52.162;5.302;2023-06-14T06:19:44;22.90;50.30
43999;DHT22;51319;52.162;5.302;2023-06-14T06:22:11;23.10;48.40
43999;DHT22;51319;52.162;5.302;2023-06-14T06:24:38;23.30;47.70
43999;DHT22;51319;52.162;5.302;2023-06-14T06:27:05;23.50;47.70
43999;DHT22;51319;52.162;5.302;2023-06-14T06:29:35;23.90;47.20
43999;DHT22;51319;52.162;5.302;2023-06-14T06:32:02;24.20;45.90
43999;DHT22;51319;52.162;5.302;2023-06-14T06:34:29;24.40;45.40
43999;DHT22;51319;52.162;5.302;2023-06-14T06:36:56;24.70;44.80
43999;DHT22;51319;52.162;5.302;2023-06-14T06:39:23;24.90;44.40
43999;DHT22;51319;52.162;5.302;2023-06-14T06:41:50;25.20;43.60
43999;DHT22;51319;52.162;5.302;2023-06-14T06:44:17;25.50;42.80
43999;DHT22;51319;52.162;5.302;2023-06-14T06:46:44;25.70;43.20
43999;DHT22;51319;52.162;5.302;2023-06-14T06:49:11;26.00;41.70
43999;DHT22;51319;52.162;5.302;2023-06-14T06:51:41;26.20;41.70
43999;DHT22;51319;52.162;5.302;2023-06-14T06:54:10;26.40;41.80
43999;DHT22;51319;52.162;5.302;2023-06-14T06:56:37;26.70;41.40
43999;DHT22;51319;52.162;5.302;2023-06-14T06:59:04;27.00;41.00
43999;DHT22;51319;52.162;5.302;2023-06-14T07:01:31;27.30;41.20
43999;DHT22;51319;52.162;5.302;2023-06-14T07:04:00;27.70;39.90
43999;DHT22;51319;52.162;5.302;2023-06-14T07:06:31;27.90;38.90
43999;DHT22;51319;52.162;5.302;2023-06-14T07:08:58;28.10;39.60
43999;DHT22;51319;52.162;5.302;2023-06-14T07:11:28;28.40;39.50
43999;DHT22;51319;52.162;5.302;2023-06-14T07:13:55;28.50;38.00
43999;DHT22;51319;52.162;5.302;2023-06-14T07:16:22;28.70;38.00
43999;DHT22;51319;52.162;5.302;2023-06-14T07:21:30;29.10;38.20
43999;DHT22;51319;52.162;5.302;2023-06-14T07:23:57;29.40;36.70
43999;DHT22;51319;52.162;5.302;2023-06-14T07:26:26;29.30;36.10
43999;DHT22;51319;52.162;5.302;2023-06-14T07:28:53;29.40;35.90
43999;DHT22;51319;52.162;5.302;2023-06-14T07:33:56;30.00;35.60
43999;DHT22;51319;52.162;5.302;2023-06-14T07:36:23;30.20;35.00
43999;DHT22;51319;52.162;5.302;2023-06-14T07:38:50;30.40;34.70
43999;DHT22;51319;52.162;5.302;2023-06-14T07:41:17;30.50;34.30
43999;DHT22;51319;52.162;5.302;2023-06-14T07:43:44;30.80;34.70
43999;DHT22;51319;52.162;5.302;2023-06-14T07:46:14;31.00;34.10
43999;DHT22;51319;52.162;5.302;2023-06-14T07:48:41;31.10;33.80
43999;DHT22;51319;52.162;5.302;2023-06-14T07:51:08;31.50;34.40
43999;DHT22;51319;52.162;5.302;2023-06-14T07:53:35;31.90;33.70
43999;DHT22;51319;52.162;5.302;2023-06-14T07:56:02;32.40;33.00
43999;DHT22;51319;52.162;5.302;2023-06-14T07:58:30;32.70;32.90
43999;DHT22;51319;52.162;5.302;2023-06-14T08:00:58;33.00;32.30
43999;DHT22;51319;52.162;5.302;2023-06-14T08:03:38;32.90;31.70
43999;DHT22;51319;52.162;5.302;2023-06-14T08:06:06;33.00;31.50
43999;DHT22;51319;52.162;5.302;2023-06-14T08:08:34;33.10;32.00
43999;DHT22;51319;52.162;5.302;2023-06-14T08:11:01;33.50;31.90
43999;DHT22;51319;52.162;5.302;2023-06-14T08:13:32;33.70;31.20
43999;DHT22;51319;52.162;5.302;2023-06-14T08:18:34;34.00;30.00
43999;DHT22;51319;52.162;5.302;2023-06-14T08:21:01;34.30;30.00
43999;DHT22;51319;52.162;5.302;2023-06-14T08:23:29;34.50;29.90
43999;DHT22;51319;52.162;5.302;2023-06-14T08:25:57;34.50;30.00
43999;DHT22;51319;52.162;5.302;2023-06-14T08:28:24;34.80;30.40
43999;DHT22;51319;52.162;5.302;2023-06-14T08:30:51;35.30;29.50
43999;DHT22;51319;52.162;5.302;2023-06-14T08:33:18;35.40;29.50
43999;DHT22;51319;52.162;5.302;2023-06-14T08:35:45;35.60;28.90
43999;DHT22;51319;52.162;5.302;2023-06-14T08:38:12;35.60;28.70
43999;DHT22;51319;52.162;5.302;2023-06-14T08:40:41;35.80;29.20
43999;DHT22;51319;52.162;5.302;2023-06-14T08:43:09;36.00;28.50
43999;DHT22;51319;52.162;5.302;2023-06-14T08:45:36;36.10;28.70
43999;DHT22;51319;52.162;5.302;2023-06-14T08:48:03;36.40;28.60
43999;DHT22;51319;52.162;5.302;2023-06-14T08:50:32;36.60;28.50
43999;DHT22;51319;52.162;5.302;2023-06-14T08:53:02;36.80;28.10
43999;DHT22;51319;52.162;5.302;2023-06-14T08:55:31;36.90;28.50
43999;DHT22;51319;52.162;5.302;2023-06-14T08:58:03;37.00;28.30
43999;DHT22;51319;52.162;5.302;2023-06-14T09:00:32;37.40;27.60
43999;DHT22;51319;52.162;5.302;2023-06-14T09:03:00;37.50;27.10
43999;DHT22;51319;52.162;5.302;2023-06-14T09:05:28;37.50;27.30
43999;DHT22;51319;52.162;5.302;2023-06-14T09:07:55;37.60;27.30
43999;DHT22;51319;52.162;5.302;2023-06-14T09:10:24;38.10;27.70
43999;DHT22;51319;52.162;5.302;2023-06-14T09:12:53;38.50;27.10
43999;DHT22;51319;52.162;5.302;2023-06-14T09:15:21;38.60;27.10
43999;DHT22;51319;52.162;5.302;2023-06-14T09:17:49;38.80;26.50
43999;DHT22;51319;52.162;5.302;2023-06-14T09:20:18;38.90;26.70
43999;DHT22;51319;52.162;5.302;2023-06-14T09:22:46;39.10;26.80
43999;DHT22;51319;52.162;5.302;2023-06-14T09:25:13;39.50;26.70
43999;DHT22;51319;52.162;5.302;2023-06-14T09:28:02;39.60;26.30
43999;DHT22;51319;52.162;5.302;2023-06-14T09:30:29;39.60;25.50
43999;DHT22;51319;52.162;5.302;2023-06-14T09:32:56;39.70;26.00
43999;DHT22;51319;52.162;5.302;2023-06-14T09:35:27;40.10;26.10
43999;DHT22;51319;52.162;5.302;2023-06-14T09:37:56;40.20;26.40
43999;DHT22;51319;52.162;5.302;2023-06-14T09:40:24;40.20;26.20
43999;DHT22;51319;52.162;5.302;2023-06-14T09:42:51;40.30;25.90
43999;DHT22;51319;52.162;5.302;2023-06-14T09:45:20;40.40;25.30
43999;DHT22;51319;52.162;5.302;2023-06-14T09:47:51;40.50;25.90
43999;DHT22;51319;52.162;5.302;2023-06-14T09:50:39;40.60;25.50
43999;DHT22;51319;52.162;5.302;2023-06-14T09:53:09;40.50;25.00
43999;DHT22;51319;52.162;5.302;2023-06-14T09:55:38;40.80;25.00
43999;DHT22;51319;52.162;5.302;2023-06-14T09:58:08;40.70;25.40
43999;DHT22;51319;52.162;5.302;2023-06-14T10:00:36;40.90;25.30
43999;DHT22;51319;52.162;5.302;2023-06-14T10:03:14;41.00;25.50
43999;DHT22;51319;52.162;5.302;2023-06-14T10:05:48;41.20;25.10
43999;DHT22;51319;52.162;5.302;2023-06-14T10:08:19;41.30;24.50
43999;DHT22;51319;52.162;5.302;2023-06-14T10:10:49;40.90;24.80
43999;DHT22;51319;52.162;5.302;2023-06-14T10:13:18;40.90;24.80
43999;DHT22;51319;52.162;5.302;2023-06-14T10:18:45;41.40;25.00
43999;DHT22;51319;52.162;5.302;2023-06-14T10:21:32;41.20;25.40
43999;DHT22;51319;52.162;5.302;2023-06-14T10:24:04;41.40;25.20
43999;DHT22;51319;52.162;5.302;2023-06-14T10:26:32;41.50;25.20
43999;DHT22;51319;52.162;5.302;2023-06-14T10:29:09;41.80;25.10
43999;DHT22;51319;52.162;5.302;2023-06-14T10:31:46;42.00;25.00
43999;DHT22;51319;52.162;5.302;2023-06-14T10:34:29;42.20;24.70
43999;DHT22;51319;52.162;5.302;2023-06-14T10:37:04;42.10;24.40
43999;DHT22;51319;52.162;5.302;2023-06-14T10:39:37;42.20;25.00
43999;DHT22;51319;52.162;5.302;2023-06-14T10:42:05;42.50;24.40
43999;DHT22;51319;52.162;5.302;2023-06-14T10:44:37;42.70;25.20
43999;DHT22;51319;52.162;5.302;2023-06-14T10:47:08;42.80;24.90
43999;DHT22;51319;52.162;5.302;2023-06-14T10:49:49;42.70;24.20
43999;DHT22;51319;52.162;5.302;2023-06-14T10:52:25;42.50;24.50
43999;DHT22;51319;52.162;5.302;2023-06-14T10:55:12;42.70;24.60
43999;DHT22;51319;52.162;5.302;2023-06-14T10:57:44;42.90;24.70
43999;DHT22;51319;52.162;5.302;2023-06-14T11:00:24;42.50;24.30
43999;DHT22;51319;52.162;5.302;2023-06-14T11:05:55;42.50;24.20
43999;DHT22;51319;52.162;5.302;2023-06-14T11:11:08;42.50;24.00
43999;DHT22;51319;52.162;5.302;2023-06-14T11:13:41;42.20;24.00
43999;DHT22;51319;52.162;5.302;2023-06-14T11:16:12;42.00;24.60
43999;DHT22;51319;52.162;5.302;2023-06-14T11:18:41;42.20;24.20
43999;DHT22;51319;52.162;5.302;2023-06-14T11:21:08;42.10;23.50
43999;DHT22;51319;52.162;5.302;2023-06-14T11:23:36;42.20;24.40
43999;DHT22;51319;52.162;5.302;2023-06-14T11:26:04;42.50;24.80
43999;DHT22;51319;52.162;5.302;2023-06-14T11:28:39;42.90;24.60
43999;DHT22;51319;52.162;5.302;2023-06-14T11:31:07;43.30;24.90
43999;DHT22;51319;52.162;5.302;2023-06-14T11:33:52;43.30;24.70
43999;DHT22;51319;52.162;5.302;2023-06-14T11:36:20;43.20;24.30
43999;DHT22;51319;52.162;5.302;2023-06-14T11:38:47;43.10;24.30
43999;DHT22;51319;52.162;5.302;2023-06-14T11:41:14;43.30;24.30
43999;DHT22;51319;52.162;5.302;2023-06-14T11:43:41;43.10;25.00
43999;DHT22;51319;52.162;5.302;2023-06-14T11:46:14;43.40;24.80
43999;DHT22;51319;52.162;5.302;2023-06-14T11:48:42;43.40;24.60
43999;DHT22;51319;52.162;5.302;2023-06-14T11:51:10;43.30;23.90
43999;DHT22;51319;52.162;5.302;2023-06-14T11:53:38;43.10;24.30
43999;DHT22;51319;52.162;5.302;2023-06-14T11:56:05;43.00;24.60
43999;DHT22;51319;52.162;5.302;2023-06-14T11:58:32;43.00;24.00
43999;DHT22;51319;52.162;5.302;2023-06-14T12:00:59;42.90;23.90
43999;DHT22;51319;52.162;5.302;2023-06-14T12:03:27;43.00;24.30
43999;DHT22;51319;52.162;5.302;2023-06-14T12:06:08;43.10;24.00
43999;DHT22;51319;52.162;5.302;2023-06-14T12:08:36;42.90;24.50
43999;DHT22;51319;52.162;5.302;2023-06-14T12:11:11;42.90;24.00
43999;DHT22;51319;52.162;5.302;2023-06-14T12:13:39;42.70;24.10
43999;DHT22;51319;52.162;5.302;2023-06-14T12:16:10;42.60;24.90
43999;DHT22;51319;52.162;5.302;2023-06-14T12:18:39;42.50;24.40
43999;DHT22;51319;52.162;5.302;2023-06-14T12:21:08;42.10;24.20
43999;DHT22;51319;52.162;5.302;2023-06-14T12:23:47;41.90;24.70
43999;DHT22;51319;52.162;5.302;2023-06-14T12:26:19;41.70;24.60
43999;DHT22;51319;52.162;5.302;2023-06-14T12:28:47;41.50;24.30
43999;DHT22;51319;52.162;5.302;2023-06-14T12:31:15;40.80;25.10
43999;DHT22;51319;52.162;5.302;2023-06-14T12:33:43;39.90;25.80
43999;DHT22;51319;52.162;5.302;2023-06-14T12:36:16;39.30;25.60
43999;DHT22;51319;52.162;5.302;2023-06-14T12:38:43;38.70;25.50
43999;DHT22;51319;52.162;5.302;2023-06-14T12:41:12;38.30;25.80
43999;DHT22;51319;52.162;5.302;2023-06-14T12:43:41;38.70;26.20
43999;DHT22;51319;52.162;5.302;2023-06-14T12:46:15;39.10;25.70
43999;DHT22;51319;52.162;5.302;2023-06-14T12:48:43;39.40;25.90
43999;DHT22;51319;52.162;5.302;2023-06-14T12:51:10;39.60;26.00
43999;DHT22;51319;52.162;5.302;2023-06-14T12:53:37;39.80;25.70
43999;DHT22;51319;52.162;5.302;2023-06-14T12:56:04;40.00;25.70
43999;DHT22;51319;52.162;5.302;2023-06-14T12:58:31;40.30;26.10
43999;DHT22;51319;52.162;5.302;2023-06-14T13:00:59;40.30;25.40
43999;DHT22;51319;52.162;5.302;2023-06-14T13:03:26;40.20;25.50
43999;DHT22;51319;52.162;5.302;2023-06-14T13:05:53;40.20;25.90
43999;DHT22;51319;52.162;5.302;2023-06-14T13:08:20;40.20;25.50
43999;DHT22;51319;52.162;5.302;2023-06-14T13:10:51;40.10;25.30
43999;DHT22;51319;52.162;5.302;2023-06-14T13:13:18;40.00;25.60
43999;DHT22;51319;52.162;5.302;2023-06-14T13:15:45;39.90;25.30
43999;DHT22;51319;52.162;5.302;2023-06-14T13:18:16;39.80;25.30
43999;DHT22;51319;52.162;5.302;2023-06-14T13:20:45;39.60;24.90
43999;DHT22;51319;52.162;5.302;2023-06-14T13:23:12;39.20;24.90
43999;DHT22;51319;52.162;5.302;2023-06-14T13:25:39;39.00;25.20
43999;DHT22;51319;52.162;5.302;2023-06-14T13:28:06;38.90;25.80
43999;DHT22;51319;52.162;5.302;2023-06-14T13:30:33;38.70;25.00
43999;DHT22;51319;52.162;5.302;2023-06-14T13:33:04;38.50;25.10
43999;DHT22;51319;52.162;5.302;2023-06-14T13:35:31;38.00;25.30
43999;DHT22;51319;52.162;5.302;2023-06-14T13:38:02;37.90;25.60
43999;DHT22;51319;52.162;5.302;2023-06-14T13:40:31;38.00;25.70
43999;DHT22;51319;52.162;5.302;2023-06-14T13:42:58;37.90;26.10
43999;DHT22;51319;52.162;5.302;2023-06-14T13:45:25;37.70;26.40
43999;DHT22;51319;52.162;5.302;2023-06-14T13:47:52;37.60;26.40
43999;DHT22;51319;52.162;5.302;2023-06-14T13:50:19;37.30;26.80
43999;DHT22;51319;52.162;5.302;2023-06-14T13:52:46;37.10;26.40
43999;DHT22;51319;52.162;5.302;2023-06-14T13:55:13;36.60;26.60
43999;DHT22;51319;52.162;5.302;2023-06-14T13:57:40;36.00;26.50
43999;DHT22;51319;52.162;5.302;2023-06-14T14:00:08;35.40;26.60
43999;DHT22;51319;52.162;5.302;2023-06-14T14:02:35;35.00;27.00
43999;DHT22;51319;52.162;5.302;2023-06-14T14:05:02;34.40;27.70
43999;DHT22;51319;52.162;5.302;2023-06-14T14:07:31;34.00;27.70
43999;DHT22;51319;52.162;5.302;2023-06-14T14:10:03;33.60;28.30
43999;DHT22;51319;52.162;5.302;2023-06-14T14:12:30;33.00;28.30
43999;DHT22;51319;52.162;5.302;2023-06-14T14:14:57;32.70;28.70
43999;DHT22;51319;52.162;5.302;2023-06-14T14:17:24;32.50;28.70
43999;DHT22;51319;52.162;5.302;2023-06-14T14:19:51;32.40;29.10
43999;DHT22;51319;52.162;5.302;2023-06-14T14:22:18;32.30;29.00
43999;DHT22;51319;52.162;5.302;2023-06-14T14:24:46;32.20;29.40
43999;DHT22;51319;52.162;5.302;2023-06-14T14:27:13;32.10;29.30
43999;DHT22;51319;52.162;5.302;2023-06-14T14:29:41;32.10;29.70
43999;DHT22;51319;52.162;5.302;2023-06-14T14:32:08;32.00;29.80
43999;DHT22;51319;52.162;5.302;2023-06-14T14:34:40;32.10;29.90
43999;DHT22;51319;52.162;5.302;2023-06-14T14:37:08;32.00;29.50
43999;DHT22;51319;52.162;5.302;2023-06-14T14:39:37;31.90;29.60
43999;DHT22;51319;52.162;5.302;2023-06-14T14:42:04;31.80;30.00
43999;DHT22;51319;52.162;5.302;2023-06-14T14:44:33;31.70;30.10
43999;DHT22;51319;52.162;5.302;2023-06-14T14:47:01;31.60;29.80
43999;DHT22;51319;52.162;5.302;2023-06-14T14:49:28;31.50;30.00
43999;DHT22;51319;52.162;5.302;2023-06-14T14:51:55;31.50;30.70
43999;DHT22;51319;52.162;5.302;2023-06-14T14:54:31;31.50;30.00
43999;DHT22;51319;52.162;5.302;2023-06-14T14:56:59;31.40;29.90
43999;DHT22;51319;52.162;5.302;2023-06-14T15:04:35;31.00;29.70
43999;DHT22;51319;52.162;5.302;2023-06-14T15:07:02;30.90;29.20
43999;DHT22;51319;52.162;5.302;2023-06-14T15:09:30;30.70;29.30
43999;DHT22;51319;52.162;5.302;2023-06-14T15:12:12;30.60;29.40
43999;DHT22;51319;52.162;5.302;2023-06-14T15:14:39;30.60;30.10
43999;DHT22;51319;52.162;5.302;2023-06-14T15:17:10;30.50;30.60
43999;DHT22;51319;52.162;5.302;2023-06-14T15:19:37;30.60;30.80
43999;DHT22;51319;52.162;5.302;2023-06-14T15:22:04;30.60;31.40
43999;DHT22;51319;52.162;5.302;2023-06-14T15:24:33;30.60;30.60
43999;DHT22;51319;52.162;5.302;2023-06-14T15:27:10;30.50;30.30
43999;DHT22;51319;52.162;5.302;2023-06-14T15:37:55;29.90;30.60
43999;DHT22;51319;52.162;5.302;2023-06-14T15:45:54;29.70;31.60
43999;DHT22;51319;52.162;5.302;2023-06-14T15:48:21;29.70;31.20
43999;DHT22;51319;52.162;5.302;2023-06-14T15:53:24;29.50;30.40
43999;DHT22;51319;52.162;5.302;2023-06-14T15:55:52;29.40;31.00
43999;DHT22;51319;52.162;5.302;2023-06-14T16:03:50;29.30;31.00
43999;DHT22;51319;52.162;5.302;2023-06-14T16:06:17;29.30;31.40
43999;DHT22;51319;52.162;5.302;2023-06-14T16:08:45;29.30;31.60
43999;DHT22;51319;52.162;5.302;2023-06-14T16:11:15;29.20;31.80
43999;DHT22;51319;52.162;5.302;2023-06-14T16:16:18;29.10;32.30
43999;DHT22;51319;52.162;5.302;2023-06-14T16:18:48;29.00;32.30
43999;DHT22;51319;52.162;5.302;2023-06-14T16:21:15;28.90;31.60
43999;DHT22;51319;52.162;5.302;2023-06-14T16:23:42;28.80;31.60
43999;DHT22;51319;52.162;5.302;2023-06-14T16:26:11;28.80;31.70
43999;DHT22;51319;52.162;5.302;2023-06-14T16:28:41;28.80;31.50
43999;DHT22;51319;52.162;5.302;2023-06-14T16:31:12;28.70;31.20